createdAt,value
2022-08-31T00:00:15.196Z,11.45
2022-08-31T00:03:01.036Z,9.40
2022-08-31T00:05:28.503Z,9.48
2022-08-31T00:07:55.866Z,10.85
2022-08-31T00:10:37.046Z,8.77
2022-08-31T00:13:06.761Z,7.82
2022-08-31T00:15:35.539Z,12.77
2022-08-31T00:18:02.932Z,10.13
2022-08-31T00:20:33.749Z,12.38
2022-08-31T00:23:03.925Z,11.05
2022-08-31T00:25:31.553Z,13.10
2022-08-31T00:27:58.681Z,13.13
2022-08-31T00:30:26.649Z,10.60
2022-08-31T00:32:54.204Z,14.30
2022-08-31T00:35:27.909Z,7.82
2022-08-31T00:37:55.882Z,11.10
2022-08-31T00:40:24.521Z,12.05
2022-08-31T00:42:52.503Z,9.52
2022-08-31T00:45:27.746Z,13.63
2022-08-31T00:47:55.356Z,11.98
2022-08-31T00:50:24.648Z,12.20
2022-08-31T00:52:57.118Z,9.48
2022-08-31T00:55:35.536Z,11.43
2022-08-31T00:58:10.740Z,8.25
2022-08-31T01:00:38.248Z,9.80
2022-08-31T01:03:07.224Z,7.05
2022-08-31T01:05:35.999Z,10.68
2022-08-31T01:08:04.519Z,10.48
2022-08-31T01:10:37.241Z,11.70
2022-08-31T01:13:05.449Z,9.50
2022-08-31T01:15:33.512Z,10.00
2022-08-31T01:18:03.653Z,10.10
2022-08-31T01:20:48.924Z,10.05
2022-08-31T01:23:19.444Z,10.77
2022-08-31T01:25:49.144Z,8.88
2022-08-31T01:28:21.138Z,8.50
2022-08-31T01:31:03.360Z,9.60
2022-08-31T01:33:31.281Z,8.50
2022-08-31T01:35:59.476Z,7.25
2022-08-31T01:38:27.177Z,8.13
2022-08-31T01:40:57.398Z,8.02
2022-08-31T01:43:25.584Z,8.75
2022-08-31T01:45:52.945Z,10.32
2022-08-31T01:48:20.939Z,11.48
2022-08-31T01:50:48.098Z,7.32
2022-08-31T01:53:15.815Z,9.45
2022-08-31T01:55:43.253Z,10.15
2022-08-31T01:58:10.545Z,11.13
2022-08-31T02:00:37.825Z,7.82
2022-08-31T02:03:08.092Z,9.80
2022-08-31T02:05:36.273Z,8.27
2022-08-31T02:08:05.495Z,10.27
2022-08-31T02:10:33.344Z,13.77
2022-08-31T02:13:09.911Z,10.15
2022-08-31T02:15:38.387Z,10.88
2022-08-31T02:18:06.269Z,9.70
2022-08-31T02:20:33.580Z,9.60
2022-08-31T02:23:03.569Z,9.30
2022-08-31T02:25:31.642Z,9.02
2022-08-31T02:27:58.875Z,7.28
2022-08-31T02:30:26.331Z,8.48
2022-08-31T02:32:53.652Z,9.77
2022-08-31T02:35:21.112Z,7.72
2022-08-31T02:37:48.540Z,10.32
2022-08-31T02:40:16.747Z,14.23
2022-08-31T02:42:53.946Z,10.57
2022-08-31T02:45:22.919Z,8.30
2022-08-31T02:47:50.381Z,9.07
2022-08-31T02:50:18.633Z,9.93
2022-08-31T02:52:47.217Z,8.25
2022-08-31T02:55:14.567Z,9.00
2022-08-31T02:57:41.664Z,9.50
2022-08-31T03:00:10.328Z,10.60
2022-08-31T03:02:37.753Z,9.02
2022-08-31T03:05:08.814Z,10.27
2022-08-31T03:07:36.825Z,13.20
2022-08-31T03:10:06.296Z,9.18
2022-08-31T03:12:33.463Z,12.60
2022-08-31T03:15:00.830Z,11.52
2022-08-31T03:17:27.985Z,8.80
2022-08-31T03:20:01.123Z,11.93
2022-08-31T03:22:29.043Z,10.93
2022-08-31T03:24:56.633Z,9.35
2022-08-31T03:27:24.789Z,11.70
2022-08-31T03:29:53.670Z,11.10
2022-08-31T03:32:22.242Z,9.98
2022-08-31T03:34:56.560Z,13.15
2022-08-31T03:37:24.614Z,9.73
2022-08-31T03:39:52.543Z,11.90
2022-08-31T03:42:20.076Z,11.27
2022-08-31T03:44:48.103Z,11.30
2022-08-31T03:47:16.956Z,10.98
2022-08-31T03:49:44.657Z,13.02
2022-08-31T03:52:12.368Z,10.60
2022-08-31T03:54:39.869Z,9.98
2022-08-31T03:57:08.173Z,11.30
2022-08-31T03:59:35.432Z,10.85
2022-08-31T04:02:02.974Z,12.85
2022-08-31T04:04:30.146Z,10.23
2022-08-31T04:06:57.401Z,8.02
2022-08-31T04:09:24.489Z,10.27
2022-08-31T04:11:52.206Z,8.00
2022-08-31T04:14:19.498Z,7.60
2022-08-31T04:16:46.736Z,9.63
2022-08-31T04:19:16.225Z,7.85
2022-08-31T04:21:44.557Z,8.05
2022-08-31T04:24:12.571Z,10.88
2022-08-31T04:26:43.399Z,11.98
2022-08-31T04:29:13.661Z,9.73
2022-08-31T04:31:41.306Z,9.50
2022-08-31T04:34:10.684Z,6.60
2022-08-31T04:36:38.311Z,8.98
2022-08-31T04:39:07.539Z,8.20
2022-08-31T04:41:38.822Z,8.95
2022-08-31T04:44:06.281Z,10.82
2022-08-31T04:46:36.358Z,12.15
2022-08-31T04:49:04.142Z,6.20
2022-08-31T04:51:35.592Z,12.00
2022-08-31T04:54:06.349Z,6.70
2022-08-31T04:56:35.628Z,8.25
2022-08-31T04:59:08.640Z,7.70
2022-08-31T05:01:42.982Z,7.70
2022-08-31T05:04:17.343Z,9.63
2022-08-31T05:06:46.721Z,12.98
2022-08-31T05:09:19.742Z,10.15
2022-08-31T05:14:14.971Z,7.60
2022-08-31T05:16:43.560Z,9.85
2022-08-31T05:19:11.231Z,8.70
2022-08-31T05:21:41.716Z,6.78
2022-08-31T05:24:18.836Z,7.03
2022-08-31T05:26:52.536Z,9.48
2022-08-31T05:29:22.627Z,9.10
2022-08-31T05:31:52.683Z,7.50
2022-08-31T05:34:21.742Z,8.00
2022-08-31T05:36:55.344Z,9.98
2022-08-31T05:39:22.986Z,9.02
2022-08-31T05:41:53.187Z,10.90
2022-08-31T05:44:22.784Z,10.48
2022-08-31T05:46:57.626Z,7.47
2022-08-31T05:49:32.351Z,8.63
2022-08-31T05:52:01.069Z,6.20
2022-08-31T05:54:54.624Z,6.82
2022-08-31T05:57:23.326Z,7.43
2022-08-31T05:59:53.200Z,8.98
2022-08-31T06:02:20.392Z,5.40
2022-08-31T06:04:47.600Z,8.95
2022-08-31T06:07:19.262Z,10.07
2022-08-31T06:09:46.584Z,7.53
2022-08-31T06:12:17.047Z,6.68
2022-08-31T06:14:46.357Z,9.65
2022-08-31T06:17:17.577Z,6.60
2022-08-31T06:19:45.034Z,8.38
2022-08-31T06:22:12.203Z,5.88
2022-08-31T06:24:39.496Z,7.55
2022-08-31T06:27:07.500Z,7.97
2022-08-31T06:29:35.991Z,10.93
2022-08-31T06:32:08.302Z,6.95
2022-08-31T06:34:36.602Z,6.93
2022-08-31T06:37:05.370Z,8.32
2022-08-31T06:39:32.924Z,9.43
2022-08-31T06:42:00.344Z,15.05
2022-08-31T06:44:27.732Z,24.38
2022-08-31T06:46:54.919Z,23.45
2022-08-31T06:49:23.436Z,11.75
2022-08-31T06:51:51.125Z,7.95
2022-08-31T06:54:34.988Z,6.90
2022-08-31T06:57:03.032Z,9.45
2022-08-31T06:59:30.369Z,7.57
2022-08-31T07:01:59.325Z,6.30
2022-08-31T07:04:27.653Z,6.50
2022-08-31T07:06:55.241Z,8.60
2022-08-31T07:09:30.672Z,5.43
2022-08-31T07:11:57.843Z,6.50
2022-08-31T07:14:26.941Z,6.80
2022-08-31T07:16:56.837Z,9.10
2022-08-31T07:19:24.823Z,7.03
2022-08-31T07:21:57.559Z,9.73
2022-08-31T07:24:29.310Z,5.28
2022-08-31T07:27:04.555Z,5.43
2022-08-31T07:29:40.578Z,5.25
2022-08-31T07:32:13.370Z,5.75
2022-08-31T07:34:41.027Z,3.15
2022-08-31T07:37:26.716Z,4.20
2022-08-31T07:40:13.381Z,5.00
2022-08-31T07:42:44.697Z,4.15
2022-08-31T07:45:20.161Z,3.50
2022-08-31T07:47:51.869Z,6.18
2022-08-31T07:50:20.754Z,4.90
2022-08-31T07:52:54.135Z,5.22
2022-08-31T07:55:23.512Z,7.20
2022-08-31T07:57:53.491Z,2.40
2022-08-31T08:00:30.006Z,3.63
2022-08-31T08:03:08.015Z,4.20
2022-08-31T08:05:38.933Z,6.85
2022-08-31T08:08:13.478Z,4.53
2022-08-31T08:10:43.885Z,2.92
2022-08-31T08:13:15.649Z,3.75
2022-08-31T08:15:42.945Z,5.90
2022-08-31T08:18:12.389Z,11.02
2022-08-31T08:20:40.490Z,8.20
2022-08-31T08:23:18.060Z,6.10
2022-08-31T08:25:57.783Z,3.75
2022-08-31T08:28:46.223Z,4.13
2022-08-31T08:31:19.754Z,6.60
2022-08-31T08:33:47.248Z,4.47
2022-08-31T08:36:16.800Z,5.22
2022-08-31T08:38:46.381Z,5.13
2022-08-31T08:41:20.686Z,4.07
2022-08-31T08:43:57.651Z,4.35
2022-08-31T08:47:37.652Z,3.10
2022-08-31T08:49:37.876Z,4.05
2022-08-31T08:52:15.817Z,4.93
2022-08-31T08:54:47.194Z,9.77
2022-08-31T08:57:38.281Z,4.28
2022-08-31T09:00:14.929Z,4.30
2022-08-31T09:02:47.143Z,4.25
2022-08-31T09:05:38.260Z,4.40
2022-08-31T09:08:44.077Z,4.72
2022-08-31T09:11:53.214Z,2.28
2022-08-31T09:14:36.588Z,3.22
2022-08-31T09:19:56.405Z,2.50
2022-08-31T09:22:23.484Z,3.00
2022-08-31T09:24:53.146Z,3.00
2022-08-31T09:27:46.813Z,5.55
2022-08-31T09:30:34.199Z,3.20
2022-08-31T09:33:01.663Z,4.32
2022-08-31T09:35:40.616Z,4.63
2022-08-31T09:38:26.849Z,3.97
2022-08-31T09:40:54.352Z,2.53
2022-08-31T09:43:35.318Z,4.38
2022-08-31T09:46:12.125Z,3.47
2022-08-31T09:48:43.567Z,3.45
2022-08-31T09:51:20.707Z,2.17
2022-08-31T09:54:06.886Z,1.92
2022-08-31T09:56:57.346Z,2.85
2022-08-31T09:59:56.111Z,2.85
2022-08-31T10:02:26.318Z,2.75
2022-08-31T10:04:56.346Z,3.30
2022-08-31T10:07:25.063Z,3.95
2022-08-31T10:10:08.383Z,3.00
2022-08-31T10:13:06.334Z,1.98
2022-08-31T10:15:43.589Z,2.70
2022-08-31T10:18:39.725Z,5.55
2022-08-31T10:21:13.270Z,4.88
2022-08-31T10:23:54.174Z,3.13
2022-08-31T10:26:36.153Z,5.35
2022-08-31T10:29:17.907Z,4.32
2022-08-31T10:31:55.418Z,5.80
2022-08-31T10:37:44.007Z,2.88
2022-08-31T10:40:24.942Z,3.58
2022-08-31T10:43:09.569Z,3.30
2022-08-31T10:45:44.046Z,2.63
2022-08-31T10:48:13.195Z,2.42
2022-08-31T10:50:54.613Z,2.47
2022-08-31T10:53:39.703Z,2.10
2022-08-31T10:56:27.481Z,2.03
2022-08-31T10:59:16.158Z,4.68
2022-08-31T11:02:03.768Z,4.90
2022-08-31T11:04:58.683Z,2.83
2022-08-31T11:07:41.023Z,5.47
2022-08-31T11:10:26.450Z,2.45
2022-08-31T11:12:59.202Z,3.42
2022-08-31T11:15:49.525Z,3.35
2022-08-31T11:19:09.266Z,2.78
2022-08-31T11:22:01.123Z,6.25
2022-08-31T11:24:48.897Z,5.60
2022-08-31T11:27:33.660Z,4.43
2022-08-31T11:30:25.111Z,6.32
2022-08-31T11:32:55.720Z,7.00
2022-08-31T11:35:57.439Z,5.97
2022-08-31T11:38:56.560Z,1.77
2022-08-31T11:41:48.651Z,1.73
2022-08-31T11:44:34.708Z,2.58
2022-08-31T11:47:28.164Z,2.90
2022-08-31T11:50:06.269Z,4.00
2022-08-31T11:53:00.479Z,4.50
2022-08-31T11:55:45.490Z,1.75
2022-08-31T11:58:33.851Z,3.17
2022-08-31T12:01:09.726Z,3.60
2022-08-31T12:03:37.211Z,5.50
2022-08-31T12:06:08.669Z,3.05
2022-08-31T12:08:57.630Z,3.45
2022-08-31T12:11:41.950Z,2.38
2022-08-31T12:14:38.152Z,4.35
2022-08-31T12:17:47.159Z,2.35
2022-08-31T12:21:08.088Z,4.53
2022-08-31T12:24:13.332Z,3.78
2022-08-31T12:27:32.756Z,4.47
2022-08-31T12:32:49.293Z,2.08
2022-08-31T12:35:18.477Z,1.67
2022-08-31T12:37:45.950Z,4.20
2022-08-31T12:40:18.216Z,5.38
2022-08-31T12:43:06.004Z,4.80
2022-08-31T12:45:57.694Z,3.35
2022-08-31T12:48:38.694Z,4.65
2022-08-31T12:51:40.259Z,1.88
2022-08-31T12:54:40.369Z,21.38
2022-08-31T12:57:07.520Z,4.18
2022-08-31T13:00:06.110Z,3.42
2022-08-31T13:02:38.370Z,7.28
2022-08-31T13:05:28.540Z,6.57
2022-08-31T13:07:56.272Z,4.90
2022-08-31T13:10:30.477Z,4.93
2022-08-31T13:13:09.929Z,3.70
2022-08-31T13:15:40.064Z,4.03
2022-08-31T13:18:28.895Z,8.13
2022-08-31T13:21:05.876Z,4.07
2022-08-31T13:23:42.010Z,2.20
2022-08-31T13:26:19.908Z,5.50
2022-08-31T13:28:51.489Z,2.22
2022-08-31T13:31:25.044Z,1.88
2022-08-31T13:33:57.090Z,3.58
2022-08-31T13:36:32.520Z,5.10
2022-08-31T13:39:11.735Z,6.85
2022-08-31T13:41:56.181Z,3.60
2022-08-31T13:44:38.558Z,4.97
2022-08-31T13:47:21.376Z,5.10
2022-08-31T13:49:53.418Z,0.82
2022-08-31T13:52:27.847Z,2.10
2022-08-31T13:55:06.287Z,4.05
2022-08-31T13:57:38.465Z,3.70
2022-08-31T14:00:43.677Z,2.65
2022-08-31T14:03:45.242Z,1.58
2022-08-31T14:06:24.645Z,4.30
2022-08-31T14:09:05.310Z,4.30
2022-08-31T14:11:35.754Z,4.15
2022-08-31T14:14:07.503Z,7.43
2022-08-31T14:16:43.526Z,2.30
2022-08-31T14:19:13.407Z,2.13
2022-08-31T14:21:42.322Z,3.10
2022-08-31T14:24:12.447Z,4.68
2022-08-31T14:26:42.622Z,3.60
2022-08-31T14:29:12.984Z,2.53
2022-08-31T14:31:52.492Z,3.72
2022-08-31T14:34:24.909Z,2.00
2022-08-31T14:37:11.017Z,3.13
2022-08-31T14:39:46.185Z,2.70
2022-08-31T14:42:18.405Z,4.85
2022-08-31T14:44:58.470Z,4.60
2022-08-31T14:47:29.187Z,4.40
2022-08-31T14:50:06.625Z,7.07
2022-08-31T14:52:39.414Z,5.07
2022-08-31T14:55:09.307Z,4.40
2022-08-31T14:57:40.084Z,4.07
2022-08-31T15:00:08.542Z,2.45
2022-08-31T15:02:35.913Z,4.50
2022-08-31T15:05:06.937Z,2.53
2022-08-31T15:07:36.730Z,2.28
2022-08-31T15:10:07.247Z,2.47
2022-08-31T15:12:35.899Z,3.25
2022-08-31T15:15:03.473Z,1.55
2022-08-31T15:17:33.976Z,4.57
2022-08-31T15:20:03.700Z,3.08
2022-08-31T15:22:33.377Z,4.82
2022-08-31T15:25:01.412Z,3.45
2022-08-31T15:27:32.101Z,6.57
2022-08-31T15:30:02.750Z,3.70
2022-08-31T15:32:31.854Z,4.40
2022-08-31T15:34:59.076Z,3.78
2022-08-31T15:37:31.988Z,2.75
2022-08-31T15:42:29.674Z,3.17
2022-08-31T15:44:57.459Z,3.78
2022-08-31T15:47:49.736Z,6.10
2022-08-31T15:50:19.579Z,3.13
2022-08-31T15:52:51.219Z,6.28
2022-08-31T15:55:26.718Z,3.15
2022-08-31T15:57:58.445Z,2.97
2022-08-31T16:00:32.615Z,4.15
2022-08-31T16:03:02.244Z,3.70
2022-08-31T16:08:28.833Z,7.05
2022-08-31T16:10:56.206Z,3.45
2022-08-31T16:19:40.466Z,5.97
2022-08-31T16:22:08.621Z,3.17
2022-08-31T16:24:56.256Z,0.93
2022-08-31T16:27:26.978Z,1.27
2022-08-31T16:29:54.420Z,1.75
2022-08-31T16:32:22.330Z,3.33
2022-08-31T16:34:49.913Z,1.27
2022-08-31T16:37:21.472Z,5.35
2022-08-31T16:39:50.876Z,1.58
2022-08-31T16:42:20.111Z,2.03
2022-08-31T16:44:49.226Z,2.67
2022-08-31T16:47:20.069Z,4.63
2022-08-31T16:49:52.285Z,2.05
2022-08-31T16:52:27.733Z,2.33
2022-08-31T16:54:57.616Z,1.05
2022-08-31T16:57:33.406Z,5.00
2022-08-31T17:00:05.189Z,2.53
2022-08-31T17:02:41.235Z,1.75
2022-08-31T17:05:10.058Z,3.33
2022-08-31T17:07:43.569Z,1.92
2022-08-31T17:10:15.209Z,5.05
2022-08-31T17:12:46.649Z,2.97
2022-08-31T17:15:17.396Z,4.10
2022-08-31T17:17:50.579Z,1.63
2022-08-31T17:20:18.285Z,2.90
2022-08-31T17:22:49.857Z,2.70
2022-08-31T17:25:20.072Z,2.58
2022-08-31T17:27:51.223Z,2.85
2022-08-31T17:30:22.230Z,3.55
2022-08-31T17:32:52.217Z,2.33
2022-08-31T17:35:25.497Z,1.00
2022-08-31T17:37:56.681Z,1.38
2022-08-31T17:40:29.268Z,3.28
2022-08-31T17:43:00.530Z,1.40
2022-08-31T17:45:39.891Z,2.10
2022-08-31T17:48:08.996Z,2.65
2022-08-31T17:50:42.888Z,3.75
2022-08-31T17:53:12.744Z,0.98
2022-08-31T17:55:45.867Z,2.40
2022-08-31T17:58:15.688Z,3.35
2022-08-31T18:00:44.139Z,2.60
2022-08-31T18:03:14.817Z,2.05
2022-08-31T18:05:51.510Z,4.40
2022-08-31T18:08:32.183Z,2.38
2022-08-31T18:11:03.742Z,0.80
2022-08-31T18:13:50.532Z,2.53
2022-08-31T18:16:24.175Z,1.25
2022-08-31T18:18:54.950Z,2.00
2022-08-31T18:21:26.182Z,5.07
2022-08-31T18:23:58.245Z,1.75
2022-08-31T18:26:33.595Z,1.17
2022-08-31T18:29:06.301Z,0.65
2022-08-31T18:31:37.754Z,2.05
2022-08-31T18:34:10.711Z,2.83
2022-08-31T18:36:41.466Z,2.90
2022-08-31T18:39:25.976Z,2.78
2022-08-31T18:42:25.309Z,1.88
2022-08-31T18:45:13.962Z,1.20
2022-08-31T18:47:42.010Z,1.15
2022-08-31T18:50:14.711Z,0.88
2022-08-31T18:52:55.685Z,2.67
2022-08-31T18:55:27.328Z,1.42
2022-08-31T18:57:55.322Z,1.52
2022-08-31T19:00:24.685Z,2.30
2022-08-31T19:02:52.601Z,1.45
2022-08-31T19:05:20.254Z,1.92
2022-08-31T19:07:49.050Z,2.30
2022-08-31T19:10:19.466Z,0.47
2022-08-31T19:12:49.342Z,1.00
2022-08-31T19:15:19.552Z,3.33
2022-08-31T19:17:55.703Z,2.25
2022-08-31T19:20:23.364Z,1.15
2022-08-31T19:22:50.978Z,0.57
2022-08-31T19:25:26.917Z,0.80
2022-08-31T19:30:28.435Z,0.60
2022-08-31T19:33:00.467Z,2.50
2022-08-31T19:35:27.798Z,2.65
2022-08-31T19:37:56.499Z,2.53
2022-08-31T19:40:36.130Z,2.10
2022-08-31T19:45:56.510Z,4.35
2022-08-31T19:48:24.434Z,1.20
2022-08-31T19:50:52.632Z,1.27
2022-08-31T19:53:21.987Z,1.63
2022-08-31T19:55:53.569Z,1.83
2022-08-31T19:58:25.807Z,1.77
2022-08-31T20:01:03.450Z,1.43
2022-08-31T20:03:34.537Z,2.97
2022-08-31T20:06:06.687Z,2.35
2022-08-31T20:08:35.477Z,1.87
2022-08-31T20:11:06.173Z,1.67
2022-08-31T20:13:38.926Z,2.13
2022-08-31T20:16:12.027Z,4.30
2022-08-31T20:18:48.788Z,2.33
2022-08-31T20:21:20.166Z,3.20
2022-08-31T20:23:49.650Z,2.47
2022-08-31T20:26:20.015Z,2.55
2022-08-31T20:28:48.641Z,2.70
2022-08-31T20:31:20.649Z,1.88
2022-08-31T20:33:48.304Z,3.00
2022-08-31T20:36:19.499Z,1.23
2022-08-31T20:38:48.416Z,1.52
2022-08-31T20:41:16.355Z,2.25
2022-08-31T20:43:46.128Z,1.40
2022-08-31T20:46:33.519Z,0.80
2022-08-31T20:49:16.807Z,0.70
2022-08-31T20:51:44.750Z,2.67
2022-08-31T20:54:12.959Z,0.65
2022-08-31T20:56:43.698Z,2.90
2022-08-31T20:59:12.655Z,1.90
2022-08-31T21:01:42.479Z,2.17
2022-08-31T21:04:12.847Z,1.90
2022-08-31T21:06:40.404Z,1.70
2022-08-31T21:09:10.477Z,1.02
2022-08-31T21:11:40.982Z,0.65
2022-08-31T21:14:11.928Z,1.33
2022-08-31T21:16:44.044Z,2.25
2022-08-31T21:19:16.830Z,1.08
2022-08-31T21:21:47.625Z,2.63
2022-08-31T21:24:19.110Z,2.03
2022-08-31T21:26:47.201Z,1.98
2022-08-31T21:29:21.782Z,2.47
2022-08-31T21:31:56.959Z,4.20
2022-08-31T21:34:27.509Z,0.90
2022-08-31T21:36:55.350Z,6.30
2022-08-31T21:39:25.452Z,3.50
2022-08-31T21:41:56.208Z,2.60
2022-08-31T21:44:24.586Z,24.48
2022-08-31T21:46:55.397Z,1.35
2022-08-31T21:49:22.903Z,1.00
2022-08-31T21:51:53.945Z,2.55
2022-08-31T21:54:27.449Z,1.23
2022-08-31T21:57:00.926Z,2.10
2022-08-31T21:59:32.740Z,2.80
2022-08-31T22:02:06.652Z,2.72
2022-08-31T22:04:39.273Z,4.55
2022-08-31T22:07:09.441Z,5.55
2022-08-31T22:09:37.633Z,1.67
2022-08-31T22:12:07.513Z,1.80
2022-08-31T22:14:38.112Z,2.22
2022-08-31T22:17:07.183Z,1.20
2022-08-31T22:19:38.997Z,2.10
2022-08-31T22:22:12.168Z,2.30
2022-08-31T22:27:11.910Z,2.20
2022-08-31T22:29:45.124Z,4.03
2022-08-31T22:32:21.101Z,3.78
2022-08-31T22:34:48.914Z,2.40
2022-08-31T22:37:16.612Z,0.88
2022-08-31T22:39:44.122Z,1.92
2022-08-31T22:42:12.204Z,1.83
2022-08-31T22:44:43.755Z,1.13
2022-08-31T22:47:11.843Z,1.95
2022-08-31T22:49:39.379Z,1.05
2022-08-31T22:52:07.384Z,1.70
2022-08-31T22:54:35.681Z,2.42
2022-08-31T22:57:03.400Z,1.73
2022-08-31T22:59:30.836Z,3.85
2022-08-31T23:02:06.265Z,0.63
2022-08-31T23:04:35.279Z,0.85
2022-08-31T23:07:04.438Z,2.38
2022-08-31T23:09:33.916Z,2.70
2022-08-31T23:12:03.490Z,0.82
2022-08-31T23:14:32.699Z,0.68
2022-08-31T23:17:08.494Z,1.70
2022-08-31T23:19:40.467Z,0.65
2022-08-31T23:22:11.057Z,1.63
2022-08-31T23:24:46.376Z,0.98
2022-08-31T23:27:17.794Z,1.67
2022-08-31T23:29:48.782Z,1.42
2022-08-31T23:32:22.255Z,3.10
2022-08-31T23:34:51.216Z,4.10
2022-08-31T23:37:19.366Z,3.80
2022-08-31T23:39:47.194Z,1.10
2022-08-31T23:42:16.665Z,0.65
2022-08-31T23:44:46.625Z,0.55
2022-08-31T23:47:18.884Z,3.58
2022-08-31T23:49:47.181Z,2.43
2022-08-31T23:52:21.309Z,0.63
2022-08-31T23:54:52.386Z,1.27
2022-08-31T23:57:31.538Z,1.23
